createdAt,value
2022-08-23T20:13:46.979Z,3.40
2022-08-23T20:16:15.218Z,3.20
2022-08-23T20:18:44.126Z,3.93
2022-08-23T20:21:12.175Z,3.23
2022-08-23T20:24:04.179Z,3.67
2022-08-23T20:26:34.544Z,3.30
2022-08-23T20:29:05.716Z,3.20
2022-08-23T20:31:37.560Z,3.10
2022-08-23T20:34:07.637Z,3.10
2022-08-23T20:36:37.451Z,2.90
2022-08-23T20:39:05.818Z,2.63
2022-08-23T20:41:37.272Z,2.90
2022-08-23T20:44:08.604Z,3.20
2022-08-23T20:46:36.910Z,3.33
2022-08-23T20:49:05.942Z,2.90
2022-08-23T20:51:36.679Z,2.77
2022-08-23T20:54:05.323Z,2.97
2022-08-23T20:56:33.488Z,2.90
2022-08-23T20:59:01.722Z,3.00
2022-08-23T21:01:31.185Z,3.07
2022-08-23T21:03:59.174Z,3.23
2022-08-23T21:06:29.017Z,3.13
2022-08-23T21:08:59.972Z,3.20
2022-08-23T21:11:29.867Z,3.60
2022-08-23T21:13:58.831Z,3.40
2022-08-23T21:16:27.290Z,3.07
2022-08-23T21:18:57.228Z,3.53
2022-08-23T21:21:25.989Z,3.90
2022-08-23T21:23:55.157Z,8.80
2022-08-23T21:26:24.575Z,7.27
2022-08-23T21:28:53.695Z,4.50
2022-08-23T21:31:24.800Z,3.70
2022-08-23T21:33:54.090Z,3.47
2022-08-23T21:36:25.636Z,3.20
2022-08-23T21:38:53.849Z,3.03
2022-08-23T21:41:31.302Z,2.73
2022-08-23T21:43:59.537Z,3.10
2022-08-23T21:46:27.935Z,2.70
2022-08-23T21:48:56.195Z,2.60
2022-08-23T21:51:25.606Z,2.50
2022-08-23T21:53:53.666Z,2.83
2022-08-23T21:56:22.771Z,2.80
2022-08-23T21:58:57.958Z,3.10
2022-08-23T22:01:26.239Z,2.77
2022-08-23T22:03:56.994Z,3.00
2022-08-23T22:06:27.331Z,2.97
2022-08-23T22:08:56.075Z,2.80
2022-08-23T22:11:24.314Z,2.80
2022-08-23T22:13:53.746Z,2.60
2022-08-23T22:16:22.428Z,2.80
2022-08-23T22:18:50.846Z,3.00
2022-08-23T22:21:18.862Z,2.73
2022-08-23T22:23:48.253Z,2.70
2022-08-23T22:26:16.337Z,2.80
2022-08-23T22:28:45.012Z,2.87
2022-08-23T22:31:15.896Z,3.00
2022-08-23T22:33:45.076Z,2.90
2022-08-23T22:36:16.481Z,3.50
2022-08-23T22:38:44.707Z,3.33
2022-08-23T22:41:17.512Z,2.83
2022-08-23T22:43:45.671Z,2.83
2022-08-23T22:46:13.897Z,2.70
2022-08-23T22:48:42.050Z,2.43
2022-08-23T22:51:12.616Z,2.67
2022-08-23T22:53:43.039Z,2.60
2022-08-23T22:56:14.601Z,2.90
2022-08-23T22:58:42.714Z,3.30
2022-08-23T23:01:13.273Z,2.73
2022-08-23T23:03:42.389Z,2.77
2022-08-23T23:06:10.736Z,2.70
2022-08-23T23:08:38.888Z,2.57
2022-08-23T23:11:11.106Z,3.10
2022-08-23T23:13:41.336Z,2.77
2022-08-23T23:16:13.817Z,3.17
2022-08-23T23:19:04.059Z,2.90
2022-08-23T23:21:32.994Z,2.67
2022-08-23T23:24:01.123Z,2.83
2022-08-23T23:26:29.538Z,2.80
2022-08-23T23:28:59.037Z,2.70
2022-08-23T23:31:27.170Z,2.50
2022-08-23T23:33:55.251Z,3.17
2022-08-23T23:36:23.738Z,2.27
2022-08-23T23:38:52.361Z,2.60
2022-08-23T23:41:20.545Z,2.77
2022-08-23T23:43:49.123Z,2.70
2022-08-23T23:46:21.013Z,2.63
2022-08-23T23:48:51.175Z,2.70
2022-08-23T23:51:21.584Z,3.27
2022-08-23T23:53:50.829Z,2.80
2022-08-23T23:56:20.548Z,2.47
2022-08-23T23:58:49.428Z,2.57
